sensor_id;sensor_type;location;lat;lon;timestamp;temperature;humidity
63960;DHT22;50136;51.374;0.096;2022-08-21T00:04:32;16.70;99.90
63960;DHT22;50136;51.374;0.096;2022-08-21T00:14:34;16.60;99.90
63960;DHT22;50136;51.374;0.096;2022-08-21T00:24:38;16.50;99.90
63960;DHT22;50136;51.374;0.096;2022-08-21T00:34:40;16.50;99.90
63960;DHT22;50136;51.374;0.096;2022-08-21T00:44:43;16.40;99.90
63960;DHT22;50136;51.374;0.096;2022-08-21T00:54:47;16.30;99.90
63960;DHT22;50136;51.374;0.096;2022-08-21T01:04:50;16.30;99.90
63960;DHT22;50136;51.374;0.096;2022-08-21T01:14:52;16.20;99.90
63960;DHT22;50136;51.374;0.096;2022-08-21T01:24:56;16.10;99.90
63960;DHT22;50136;51.374;0.096;2022-08-21T01:34:58;16.10;99.90
63960;DHT22;50136;51.374;0.096;2022-08-21T01:45:01;16.00;99.90
63960;DHT22;50136;51.374;0.096;2022-08-21T01:55:04;16.00;99.90
63960;DHT22;50136;51.374;0.096;2022-08-21T02:05:10;15.90;99.90
63960;DHT22;50136;51.374;0.096;2022-08-21T02:15:13;15.80;99.90
63960;DHT22;50136;51.374;0.096;2022-08-21T02:25:18;15.80;99.90
63960;DHT22;50136;51.374;0.096;2022-08-21T02:35:21;15.80;99.90
63960;DHT22;50136;51.374;0.096;2022-08-21T02:45:25;15.70;99.90
63960;DHT22;50136;51.374;0.096;2022-08-21T02:55:29;15.70;99.90
63960;DHT22;50136;51.374;0.096;2022-08-21T03:05:34;15.70;99.90
63960;DHT22;50136;51.374;0.096;2022-08-21T03:15:37;15.70;99.90
63960;DHT22;50136;51.374;0.096;2022-08-21T03:25:40;15.60;99.90
63960;DHT22;50136;51.374;0.096;2022-08-21T03:35:44;15.60;99.90
63960;DHT22;50136;51.374;0.096;2022-08-21T03:45:48;15.50;99.90
63960;DHT22;50136;51.374;0.096;2022-08-21T03:55:53;15.50;99.90
63960;DHT22;50136;51.374;0.096;2022-08-21T04:05:56;15.40;99.90
63960;DHT22;50136;51.374;0.096;2022-08-21T04:15:58;15.40;99.90
63960;DHT22;50136;51.374;0.096;2022-08-21T04:26:02;15.30;99.90
63960;DHT22;50136;51.374;0.096;2022-08-21T04:36:05;15.30;99.90
63960;DHT22;50136;51.374;0.096;2022-08-21T04:46:09;15.30;99.90
63960;DHT22;50136;51.374;0.096;2022-08-21T04:56:31;15.10;99.90
63960;DHT22;50136;51.374;0.096;2022-08-21T05:06:36;15.10;99.90
63960;DHT22;50136;51.374;0.096;2022-08-21T05:16:39;15.10;99.90
63960;DHT22;50136;51.374;0.096;2022-08-21T05:26:42;15.00;99.90
63960;DHT22;50136;51.374;0.096;2022-08-21T05:36:48;15.00;99.90
63960;DHT22;50136;51.374;0.096;2022-08-21T05:46:51;15.20;99.90
63960;DHT22;50136;51.374;0.096;2022-08-21T05:56:54;15.30;99.90
63960;DHT22;50136;51.374;0.096;2022-08-21T06:06:57;15.40;99.90
63960;DHT22;50136;51.374;0.096;2022-08-21T06:17:02;15.60;99.90
63960;DHT22;50136;51.374;0.096;2022-08-21T06:27:06;15.80;99.90
63960;DHT22;50136;51.374;0.096;2022-08-21T06:37:10;15.90;99.90
63960;DHT22;50136;51.374;0.096;2022-08-21T06:47:13;16.10;99.90
63960;DHT22;50136;51.374;0.096;2022-08-21T06:57:16;16.40;99.90
63960;DHT22;50136;51.374;0.096;2022-08-21T07:07:19;16.60;99.90
63960;DHT22;50136;51.374;0.096;2022-08-21T07:17:21;16.70;99.90
63960;DHT22;50136;51.374;0.096;2022-08-21T07:27:24;17.30;99.90
63960;DHT22;50136;51.374;0.096;2022-08-21T07:37:26;18.00;99.90
63960;DHT22;50136;51.374;0.096;2022-08-21T07:47:30;18.20;99.90
63960;DHT22;50136;51.374;0.096;2022-08-21T07:57:44;18.40;99.90
63960;DHT22;50136;51.374;0.096;2022-08-21T08:07:47;18.60;99.90
63960;DHT22;50136;51.374;0.096;2022-08-21T08:17:49;19.10;99.90
63960;DHT22;50136;51.374;0.096;2022-08-21T08:27:54;19.20;99.90
63960;DHT22;50136;51.374;0.096;2022-08-21T08:37:56;19.20;99.90
63960;DHT22;50136;51.374;0.096;2022-08-21T08:48:02;19.10;99.90
63960;DHT22;50136;51.374;0.096;2022-08-21T08:58:05;19.10;99.90
63960;DHT22;50136;51.374;0.096;2022-08-21T09:08:21;19.50;99.90
63960;DHT22;50136;51.374;0.096;2022-08-21T09:18:34;20.40;99.90
63960;DHT22;50136;51.374;0.096;2022-08-21T09:28:40;22.00;96.40
63960;DHT22;50136;51.374;0.096;2022-08-21T09:38:52;23.10;96.00
63960;DHT22;50136;51.374;0.096;2022-08-21T09:48:58;25.60;88.80
63960;DHT22;50136;51.374;0.096;2022-08-21T09:59:14;26.00;89.20
63960;DHT22;50136;51.374;0.096;2022-08-21T10:09:19;25.50;87.70
63960;DHT22;50136;51.374;0.096;2022-08-21T10:19:33;25.90;87.20
63960;DHT22;50136;51.374;0.096;2022-08-21T10:29:47;25.60;86.30
63960;DHT22;50136;51.374;0.096;2022-08-21T10:40:02;26.70;82.00
63960;DHT22;50136;51.374;0.096;2022-08-21T10:50:10;26.50;80.30
63960;DHT22;50136;51.374;0.096;2022-08-21T11:32:56;24.70;83.20
63960;DHT22;50136;51.374;0.096;2022-08-21T11:43:05;24.80;83.20
63960;DHT22;50136;51.374;0.096;2022-08-21T11:53:12;23.90;85.40
63960;DHT22;50136;51.374;0.096;2022-08-21T12:03:21;23.40;86.60
63960;DHT22;50136;51.374;0.096;2022-08-21T12:13:28;23.30;87.00
63960;DHT22;50136;51.374;0.096;2022-08-21T12:24:15;23.30;87.80
63960;DHT22;50136;51.374;0.096;2022-08-21T12:34:20;23.40;86.60
63960;DHT22;50136;51.374;0.096;2022-08-21T12:44:28;23.50;87.60
63960;DHT22;50136;51.374;0.096;2022-08-21T12:54:42;23.70;86.80
63960;DHT22;50136;51.374;0.096;2022-08-21T13:04:46;23.40;86.70
63960;DHT22;50136;51.374;0.096;2022-08-21T13:14:51;23.50;87.20
63960;DHT22;50136;51.374;0.096;2022-08-21T13:24:57;23.60;88.00
63960;DHT22;50136;51.374;0.096;2022-08-21T13:35:10;24.10;87.00
63960;DHT22;50136;51.374;0.096;2022-08-21T13:45:20;25.00;84.60
63960;DHT22;50136;51.374;0.096;2022-08-21T13:55:25;24.80;83.40
63960;DHT22;50136;51.374;0.096;2022-08-21T14:05:43;24.40;84.90
63960;DHT22;50136;51.374;0.096;2022-08-21T14:15:54;24.00;84.70
63960;DHT22;50136;51.374;0.096;2022-08-21T14:25:59;24.40;83.90
63960;DHT22;50136;51.374;0.096;2022-08-21T14:36:03;25.20;82.80
63960;DHT22;50136;51.374;0.096;2022-08-21T14:46:05;25.70;81.70
63960;DHT22;50136;51.374;0.096;2022-08-21T14:56:09;25.30;81.80
63960;DHT22;50136;51.374;0.096;2022-08-21T15:06:11;25.50;81.90
63960;DHT22;50136;51.374;0.096;2022-08-21T15:16:15;25.30;81.50
63960;DHT22;50136;51.374;0.096;2022-08-21T15:26:17;25.70;80.20
63960;DHT22;50136;51.374;0.096;2022-08-21T15:36:20;25.20;81.50
63960;DHT22;50136;51.374;0.096;2022-08-21T15:46:22;25.40;80.60
63960;DHT22;50136;51.374;0.096;2022-08-21T15:56:28;25.70;80.20
63960;DHT22;50136;51.374;0.096;2022-08-21T16:17:05;25.00;77.40
63960;DHT22;50136;51.374;0.096;2022-08-21T16:27:07;25.30;78.10
63960;DHT22;50136;51.374;0.096;2022-08-21T16:37:11;25.70;79.10
63960;DHT22;50136;51.374;0.096;2022-08-21T16:47:24;25.80;78.00
63960;DHT22;50136;51.374;0.096;2022-08-21T16:57:29;25.60;80.10
63960;DHT22;50136;51.374;0.096;2022-08-21T17:07:32;25.00;79.60
63960;DHT22;50136;51.374;0.096;2022-08-21T17:17:40;24.50;83.20
63960;DHT22;50136;51.374;0.096;2022-08-21T17:27:42;24.30;85.90
63960;DHT22;50136;51.374;0.096;2022-08-21T17:37:46;24.00;87.80
63960;DHT22;50136;51.374;0.096;2022-08-21T17:47:48;23.60;88.30
63960;DHT22;50136;51.374;0.096;2022-08-21T17:57:51;23.10;90.10
63960;DHT22;50136;51.374;0.096;2022-08-21T18:07:54;22.60;91.00
63960;DHT22;50136;51.374;0.096;2022-08-21T18:17:57;22.10;91.50
63960;DHT22;50136;51.374;0.096;2022-08-21T18:28:01;21.80;92.00
63960;DHT22;50136;51.374;0.096;2022-08-21T18:38:04;21.50;93.40
63960;DHT22;50136;51.374;0.096;2022-08-21T18:48:08;21.20;93.70
63960;DHT22;50136;51.374;0.096;2022-08-21T18:58:14;20.90;95.30
63960;DHT22;50136;51.374;0.096;2022-08-21T19:08:19;20.70;94.80
63960;DHT22;50136;51.374;0.096;2022-08-21T19:18:24;20.50;95.30
63960;DHT22;50136;51.374;0.096;2022-08-21T19:28:30;20.30;96.10
63960;DHT22;50136;51.374;0.096;2022-08-21T19:38:35;20.10;96.30
63960;DHT22;50136;51.374;0.096;2022-08-21T19:48:38;20.00;97.00
63960;DHT22;50136;51.374;0.096;2022-08-21T19:59:01;19.80;97.90
63960;DHT22;50136;51.374;0.096;2022-08-21T20:09:10;19.50;98.70
63960;DHT22;50136;51.374;0.096;2022-08-21T20:19:13;19.30;99.60
63960;DHT22;50136;51.374;0.096;2022-08-21T20:29:16;19.10;99.90
63960;DHT22;50136;51.374;0.096;2022-08-21T20:39:26;19.00;99.90
63960;DHT22;50136;51.374;0.096;2022-08-21T20:49:32;18.80;99.90
63960;DHT22;50136;51.374;0.096;2022-08-21T20:59:47;18.60;99.90
63960;DHT22;50136;51.374;0.096;2022-08-21T21:09:52;18.50;99.90
63960;DHT22;50136;51.374;0.096;2022-08-21T21:20:00;18.30;99.90
63960;DHT22;50136;51.374;0.096;2022-08-21T21:30:06;18.10;99.90
63960;DHT22;50136;51.374;0.096;2022-08-21T21:40:40;18.00;99.90
63960;DHT22;50136;51.374;0.096;2022-08-21T21:50:51;17.90;99.90
63960;DHT22;50136;51.374;0.096;2022-08-21T22:01:00;17.70;99.90
63960;DHT22;50136;51.374;0.096;2022-08-21T22:11:10;17.50;99.90
63960;DHT22;50136;51.374;0.096;2022-08-21T22:21:29;17.30;99.90
63960;DHT22;50136;51.374;0.096;2022-08-21T22:31:33;17.20;99.90
63960;DHT22;50136;51.374;0.096;2022-08-21T22:41:43;17.10;99.90
63960;DHT22;50136;51.374;0.096;2022-08-21T22:51:47;16.90;99.90
63960;DHT22;50136;51.374;0.096;2022-08-21T23:01:57;16.80;99.90
63960;DHT22;50136;51.374;0.096;2022-08-21T23:12:03;16.60;99.90
63960;DHT22;50136;51.374;0.096;2022-08-21T23:22:43;16.40;99.90
63960;DHT22;50136;51.374;0.096;2022-08-21T23:33:03;16.30;99.90
63960;DHT22;50136;51.374;0.096;2022-08-21T23:43:29;16.20;99.90
63960;DHT22;50136;51.374;0.096;2022-08-21T23:53:48;16.00;99.90
